Time;durP1;ratioP1;P1;durP2;ratioP2;P2;SDS_P1;SDS_P2;PMS_P1;PMS_P2;Temp;Humidity;BMP_temperature;BMP_pressure;BME280_temperature;BME280_humidity;BME280_pressure;Samples;Min_cycle;Max_cycle;Signal;HPM_P1;HPM_P2
2023/12/09 00:01:12;;;;;;;11.57;3.50;;;10.70;61.90;;;;;;5013231;28;20123;-48
2023/12/09 00:03:39;;;;;;;9.45;2.80;;;10.70;61.80;;;;;;5007034;28;20065;-44
2023/12/09 00:06:08;;;;;;;5.38;2.63;;;10.70;61.80;;;;;;5007175;28;20478;-37
2023/12/09 00:08:35;;;;;;;5.47;2.70;;;10.70;62.60;;;;;;5008765;28;20049;-35
2023/12/09 00:11:02;;;;;;;8.77;2.90;;;10.70;61.90;;;;;;5005116;28;20046;-36
2023/12/09 00:13:31;;;;;;;8.98;3.17;;;10.70;61.90;;;;;;5009201;28;20549;-36
2023/12/09 00:15:59;;;;;;;12.82;2.95;;;10.70;61.90;;;;;;5006688;28;20509;-37
2023/12/09 00:18:26;;;;;;;6.70;2.63;;;10.70;61.90;;;;;;5003756;28;20050;-35
2023/12/09 00:20:53;;;;;;;8.05;2.83;;;10.70;62.00;;;;;;5009638;28;20049;-34
2023/12/09 00:23:22;;;;;;;12.20;3.45;;;10.70;61.90;;;;;;5007643;28;20494;-37
2023/12/09 00:25:49;;;;;;;5.30;2.65;;;10.70;61.80;;;;;;5008010;28;20062;-35
2023/12/09 00:28:16;;;;;;;8.30;2.67;;;10.70;61.80;;;;;;5009252;28;20061;-35
2023/12/09 00:30:43;;;;;;;9.38;2.63;;;10.70;61.70;;;;;;5010965;28;20046;-36
2023/12/09 00:33:11;;;;;;;11.23;2.60;;;10.70;61.80;;;;;;5006678;28;20057;-35
2023/12/09 00:35:38;;;;;;;10.27;2.83;;;10.70;61.80;;;;;;5006930;28;20054;-34
2023/12/09 00:38:05;;;;;;;6.55;2.20;;;10.80;61.90;;;;;;5004881;28;20430;-34
2023/12/09 00:40:34;;;;;;;5.43;2.47;;;10.80;62.50;;;;;;5007379;28;20046;-35
2023/12/09 00:43:01;;;;;;;5.88;2.03;;;10.80;61.70;;;;;;5008659;28;20054;-35
2023/12/09 00:45:28;;;;;;;5.50;2.42;;;10.80;61.70;;;;;;5006224;28;20053;-35
2023/12/09 00:47:55;;;;;;;8.23;2.47;;;10.80;61.70;;;;;;5009266;28;20054;-34
2023/12/09 00:50:22;;;;;;;10.27;3.80;;;10.80;61.70;;;;;;5006871;28;20414;-34
2023/12/09 00:52:50;;;;;;;13.82;3.70;;;10.80;61.60;;;;;;5016015;28;20049;-37
2023/12/09 00:55:17;;;;;;;13.57;3.72;;;10.80;61.60;;;;;;5007472;28;20589;-36
2023/12/09 00:57:45;;;;;;;7.28;3.42;;;10.90;61.70;;;;;;5004236;28;20050;-37
2023/12/09 01:00:15;;;;;;;8.48;3.90;;;10.80;61.50;;;;;;5006552;28;20061;-36
2023/12/09 01:02:42;;;;;;;8.05;3.33;;;10.80;61.60;;;;;;5006585;28;20054;-35
2023/12/09 01:05:10;;;;;;;11.18;3.05;;;10.80;61.50;;;;;;5007135;28;20502;-35
2023/12/09 01:07:38;;;;;;;6.65;2.47;;;10.80;61.50;;;;;;5007196;28;20053;-37
2023/12/09 01:10:06;;;;;;;7.72;2.72;;;10.80;61.50;;;;;;5009071;28;20057;-37
2023/12/09 01:12:33;;;;;;;7.18;3.15;;;10.90;62.30;;;;;;5008280;28;20056;-35
2023/12/09 01:15:02;;;;;;;9.75;3.10;;;10.80;61.50;;;;;;5007593;28;20499;-37
2023/12/09 01:17:30;;;;;;;7.80;2.78;;;10.80;61.40;;;;;;4999169;28;20054;-35
2023/12/09 01:19:57;;;;;;;8.82;2.78;;;10.90;61.50;;;;;;5009454;28;20049;-34
2023/12/09 01:22:24;;;;;;;6.57;2.60;;;10.80;62.20;;;;;;5013526;28;20425;-34
2023/12/09 01:24:51;;;;;;;4.72;2.05;;;10.80;61.40;;;;;;5006869;28;20064;-35
2023/12/09 01:27:18;;;;;;;8.73;1.85;;;10.80;61.40;;;;;;5007108;28;20050;-34
2023/12/09 01:29:46;;;;;;;4.88;2.38;;;10.80;61.40;;;;;;5005788;28;20497;-37
2023/12/09 01:32:14;;;;;;;10.63;2.60;;;10.80;61.40;;;;;;5005132;28;20054;-34
2023/12/09 01:34:41;;;;;;;7.65;2.72;;;10.80;61.30;;;;;;5004911;28;20050;-35
2023/12/09 01:37:09;;;;;;;9.57;3.08;;;10.90;61.40;;;;;;5006601;28;21292;-35
2023/12/09 01:39:38;;;;;;;12.45;3.50;;;10.80;61.30;;;;;;5005972;28;20045;-35
2023/12/09 01:42:05;;;;;;;10.20;2.78;;;10.80;61.20;;;;;;5009057;28;20413;-34
2023/12/09 01:44:33;;;;;;;8.82;3.35;;;10.80;61.20;;;;;;5004594;28;20087;-35
2023/12/09 01:47:00;;;;;;;6.88;3.10;;;10.80;61.20;;;;;;5006682;28;20629;-35
2023/12/09 01:49:29;;;;;;;8.20;3.53;;;10.80;61.20;;;;;;5007001;28;20691;-35
2023/12/09 01:51:58;;;;;;;8.25;4.40;;;10.80;61.20;;;;;;5004887;28;20057;-35
2023/12/09 01:54:26;;;;;;;10.57;5.05;;;10.80;61.20;;;;;;5008435;28;20058;-34
2023/12/09 01:56:53;;;;;;;14.10;5.50;;;10.80;61.30;;;;;;5003591;28;20061;-35
2023/12/09 01:59:20;;;;;;;10.57;5.15;;;10.80;61.30;;;;;;5006843;28;20057;-34
2023/12/09 02:01:49;;;;;;;7.63;4.28;;;10.80;61.30;;;;;;5007802;28;20062;-34
2023/12/09 02:04:17;;;;;;;11.13;4.57;;;10.80;61.30;;;;;;5003666;28;20057;-34
2023/12/09 02:06:46;;;;;;;11.93;5.28;;;10.80;61.30;;;;;;5004729;28;20581;-34
2023/12/09 02:09:13;;;;;;;9.07;4.43;;;10.70;61.30;;;;;;5004308;28;20482;-34
2023/12/09 02:11:52;;;;;;;15.32;5.60;;;10.70;61.30;;;;;;5009394;28;20498;-37
2023/12/09 02:14:25;;;;;;;13.30;5.18;;;10.80;61.40;;;;;;5003166;28;20054;-36
2023/12/09 02:16:59;;;;;;;10.68;5.07;;;10.70;61.40;;;;;;5004913;28;20061;-36
2023/12/09 02:19:27;;;;;;;12.10;4.60;;;10.70;61.40;;;;;;5002902;28;20505;-35
2023/12/09 02:22:01;;;;;;;11.65;4.60;;;10.70;61.40;;;;;;5003069;28;20053;-34
2023/12/09 02:24:29;;;;;;;8.67;4.10;;;10.70;61.30;;;;;;5004751;28;20050;-39
2023/12/09 02:27:03;;;;;;;13.60;4.32;;;10.70;61.10;;;;;;5007259;28;20496;-46
2023/12/09 02:29:36;;;;;;;10.82;4.28;;;10.70;61.00;;;;;;5003715;28;20498;-44
2023/12/09 02:32:08;;;;;;;12.00;4.05;;;10.70;60.90;;;;;;5004054;28;20061;-44
2023/12/09 02:34:38;;;;;;;8.15;3.00;;;10.60;60.70;;;;;;5005835;28;20525;-41
2023/12/09 02:37:08;;;;;;;10.43;2.00;;;10.60;60.60;;;;;;5014611;28;20425;-47
2023/12/09 02:39:38;;;;;;;5.32;1.92;;;10.60;60.60;;;;;;5015129;28;20406;-48
2023/12/09 02:42:06;;;;;;;8.52;2.08;;;10.60;60.70;;;;;;5015268;28;20050;-44
2023/12/09 02:44:35;;;;;;;12.10;1.80;;;10.50;60.60;;;;;;5025734;28;20049;-48
2023/12/09 02:47:02;;;;;;;7.15;1.98;;;10.50;60.70;;;;;;5019468;28;20073;-44
2023/12/09 02:49:29;;;;;;;8.10;2.00;;;10.40;60.60;;;;;;5014538;28;20049;-45
2023/12/09 02:51:56;;;;;;;5.20;1.85;;;10.40;60.60;;;;;;5023001;28;20092;-45
2023/12/09 02:54:24;;;;;;;10.77;2.20;;;10.40;60.60;;;;;;5014191;28;20058;-46
2023/12/09 02:56:52;;;;;;;9.15;2.17;;;10.40;60.70;;;;;;5012216;28;20414;-41
2023/12/09 02:59:19;;;;;;;5.95;1.88;;;10.30;60.60;;;;;;5011737;28;20052;-47
2023/12/09 03:01:46;;;;;;;9.93;3.08;;;10.30;60.60;;;;;;5012385;28;20062;-46
2023/12/09 03:04:14;;;;;;;8.32;3.95;;;10.30;60.60;;;;;;5011520;28;20049;-45
2023/12/09 03:06:41;;;;;;;12.05;4.47;;;10.20;60.50;;;;;;5011466;28;20054;-44
2023/12/09 03:09:09;;;;;;;10.38;4.07;;;10.20;60.40;;;;;;5012015;28;20076;-41
2023/12/09 03:11:36;;;;;;;7.53;3.92;;;10.20;60.40;;;;;;5013536;28;20050;-46
2023/12/09 03:14:04;;;;;;;9.30;3.88;;;10.10;60.30;;;;;;5024179;28;20532;-42
2023/12/09 03:16:31;;;;;;;10.93;3.53;;;10.10;60.30;;;;;;5022109;28;20060;-45
2023/12/09 03:18:59;;;;;;;8.95;3.75;;;10.10;60.30;;;;;;5019559;28;20049;-43
2023/12/09 03:21:26;;;;;;;9.52;3.00;;;10.00;60.30;;;;;;5018946;28;20053;-44
2023/12/09 03:23:53;;;;;;;6.78;2.50;;;10.00;60.40;;;;;;5014575;28;20057;-44
2023/12/09 03:26:21;;;;;;;5.43;2.58;;;10.00;60.50;;;;;;5013185;28;20058;-45
2023/12/09 03:28:48;;;;;;;6.63;2.25;;;9.90;60.60;;;;;;5012024;28;20050;-44
2023/12/09 03:31:17;;;;;;;11.88;2.80;;;9.90;60.80;;;;;;5017329;28;20421;-43
2023/12/09 03:33:45;;;;;;;8.15;2.58;;;9.90;61.00;;;;;;5014794;28;20057;-45
2023/12/09 03:36:13;;;;;;;13.57;3.03;;;9.80;61.10;;;;;;4994001;28;20054;-45
2023/12/09 03:38:40;;;;;;;9.57;3.10;;;9.80;61.30;;;;;;5000340;28;20053;-44
2023/12/09 03:41:08;;;;;;;8.05;2.75;;;9.80;61.50;;;;;;4992320;28;20046;-46
2023/12/09 03:43:35;;;;;;;5.60;2.38;;;9.80;61.60;;;;;;4993823;28;20383;-45
2023/12/09 03:46:03;;;;;;;7.95;2.53;;;9.80;61.70;;;;;;4990655;28;20563;-41
2023/12/09 03:48:32;;;;;;;12.13;2.75;;;9.70;61.80;;;;;;4996548;28;20415;-41
2023/12/09 03:50:59;;;;;;;8.43;2.70;;;9.80;61.90;;;;;;4987332;28;20046;-42
2023/12/09 03:53:26;;;;;;;12.20;3.28;;;9.70;61.90;;;;;;4991049;28;20054;-40
2023/12/09 03:55:53;;;;;;;8.23;2.78;;;9.70;62.00;;;;;;4992525;28;20058;-40
2023/12/09 03:58:22;;;;;;;9.82;3.17;;;9.70;62.00;;;;;;4991269;28;20058;-41
2023/12/09 04:00:49;;;;;;;11.88;3.40;;;9.70;62.10;;;;;;4992355;28;20411;-40
2023/12/09 04:03:17;;;;;;;8.43;3.38;;;9.70;62.10;;;;;;4998162;28;20049;-42
2023/12/09 04:05:45;;;;;;;12.18;4.57;;;9.70;62.10;;;;;;4998218;28;20058;-40
2023/12/09 04:08:13;;;;;;;13.80;5.18;;;9.60;62.00;;;;;;4991879;28;20470;-42
2023/12/09 04:10:40;;;;;;;8.02;4.43;;;9.70;62.00;;;;;;4996626;28;21396;-40
2023/12/09 04:13:07;;;;;;;13.35;4.75;;;9.60;61.90;;;;;;4987210;28;20065;-44
2023/12/09 04:15:35;;;;;;;12.90;5.25;;;9.60;61.90;;;;;;4993603;28;20486;-41
2023/12/09 04:18:02;;;;;;;11.05;5.38;;;9.60;61.80;;;;;;4990514;28;20054;-41
2023/12/09 04:20:30;;;;;;;11.98;4.47;;;9.60;61.70;;;;;;4990847;28;20411;-41
2023/12/09 04:22:59;;;;;;;10.30;4.05;;;9.50;61.70;;;;;;4992144;28;20606;-40
2023/12/09 04:25:26;;;;;;;8.80;3.58;;;9.50;61.80;;;;;;4991872;28;20061;-40
2023/12/09 04:27:54;;;;;;;10.68;3.53;;;9.50;62.00;;;;;;4996600;28;20510;-41
2023/12/09 04:30:22;;;;;;;7.57;3.40;;;9.50;62.20;;;;;;4992622;28;20047;-41
2023/12/09 04:32:50;;;;;;;7.43;3.60;;;9.40;62.40;;;;;;4990795;28;20054;-41
2023/12/09 04:35:17;;;;;;;9.32;3.47;;;9.40;62.50;;;;;;4989890;28;20061;-42
2023/12/09 04:37:44;;;;;;;9.80;3.80;;;9.40;62.70;;;;;;4992734;28;20521;-39
2023/12/09 04:40:13;;;;;;;10.10;3.78;;;9.40;62.80;;;;;;4990944;28;20050;-43
2023/12/09 04:42:41;;;;;;;9.18;3.42;;;9.40;62.90;;;;;;4986720;28;20061;-42
2023/12/09 04:45:10;;;;;;;10.80;3.33;;;9.40;63.00;;;;;;4984933;28;20054;-41
2023/12/09 04:47:38;;;;;;;15.60;3.53;;;9.30;62.80;;;;;;4992735;28;20496;-42
2023/12/09 04:50:08;;;;;;;13.95;4.25;;;9.40;63.00;;;;;;4999715;28;20046;-40
2023/12/09 04:52:35;;;;;;;12.00;3.78;;;9.40;63.10;;;;;;4998262;28;20054;-42
2023/12/09 04:55:04;;;;;;;12.15;3.53;;;9.30;63.10;;;;;;4995006;28;20633;-40
2023/12/09 04:57:32;;;;;;;10.50;3.78;;;9.30;63.20;;;;;;4995904;28;20498;-41
2023/12/09 05:00:03;;;;;;;10.85;4.45;;;9.30;63.20;;;;;;4988195;28;20495;-41
2023/12/09 05:02:30;;;;;;;12.00;3.92;;;9.30;63.30;;;;;;4996309;28;20498;-40
2023/12/09 05:04:57;;;;;;;11.93;3.90;;;9.30;63.40;;;;;;4995076;28;20050;-40
2023/12/09 05:07:26;;;;;;;11.23;3.78;;;9.30;63.60;;;;;;4990699;28;20054;-40
2023/12/09 05:09:53;;;;;;;7.70;3.35;;;9.30;63.60;;;;;;4989577;28;20057;-41
2023/12/09 05:12:21;;;;;;;8.98;3.80;;;9.30;63.70;;;;;;5001160;28;20053;-40
2023/12/09 05:14:49;;;;;;;7.80;3.00;;;9.30;63.80;;;;;;4987109;28;20054;-41
2023/12/09 05:17:17;;;;;;;10.18;3.40;;;9.20;64.00;;;;;;4982902;28;20491;-41
2023/12/09 05:19:44;;;;;;;9.73;2.88;;;9.20;64.10;;;;;;4985507;28;20737;-39
2023/12/09 05:22:12;;;;;;;8.65;2.50;;;9.30;64.30;;;;;;4993110;28;20077;-40
2023/12/09 05:24:39;;;;;;;7.40;2.30;;;9.20;64.50;;;;;;4993342;28;20491;-42
2023/12/09 05:27:06;;;;;;;9.15;2.10;;;9.30;64.80;;;;;;4988317;28;20058;-41
2023/12/09 05:29:33;;;;;;;5.80;1.92;;;9.30;65.10;;;;;;4991035;28;20494;-41
2023/12/09 05:32:02;;;;;;;4.10;2.00;;;9.30;65.30;;;;;;4992553;28;20402;-41
2023/12/09 05:34:30;;;;;;;4.70;1.80;;;9.30;65.40;;;;;;4991460;28;20502;-41
2023/12/09 05:36:57;;;;;;;5.57;1.60;;;9.30;65.50;;;;;;4991747;28;20422;-41
2023/12/09 05:39:24;;;;;;;5.57;1.80;;;9.40;65.70;;;;;;4985274;28;20058;-37
2023/12/09 05:41:51;;;;;;;8.00;2.08;;;9.40;65.80;;;;;;4987427;28;20054;-40
2023/12/09 05:44:19;;;;;;;6.35;2.05;;;9.40;65.90;;;;;;4990093;28;20046;-41
2023/12/09 05:46:46;;;;;;;7.97;2.20;;;9.50;66.10;;;;;;4991354;28;20062;-41
2023/12/09 05:49:15;;;;;;;4.60;2.00;;;9.50;66.10;;;;;;4990779;28;20551;-41
2023/12/09 05:51:42;;;;;;;10.48;1.80;;;9.60;66.20;;;;;;4990989;28;20043;-42
2023/12/09 05:54:10;;;;;;;5.38;2.20;;;9.60;66.10;;;;;;4985327;28;20483;-41
2023/12/09 05:56:38;;;;;;;9.50;1.92;;;9.70;66.00;;;;;;4987795;28;20416;-40
2023/12/09 05:59:05;;;;;;;7.95;2.20;;;9.70;65.90;;;;;;4987646;28;20058;-42
2023/12/09 06:01:33;;;;;;;8.48;2.25;;;9.70;65.70;;;;;;4986838;28;20061;-41
2023/12/09 06:04:00;;;;;;;6.55;1.90;;;9.70;65.50;;;;;;4983170;28;20059;-43
2023/12/09 06:06:29;;;;;;;11.93;2.30;;;9.80;65.40;;;;;;4988779;28;20055;-40
2023/12/09 06:08:56;;;;;;;10.77;3.15;;;9.80;65.20;;;;;;4985432;28;20380;-41
2023/12/09 06:11:23;;;;;;;18.42;2.80;;;9.80;65.00;;;;;;4989222;28;20057;-42
2023/12/09 06:13:50;;;;;;;15.65;3.35;;;9.80;64.90;;;;;;4987571;28;20768;-39
2023/12/09 06:16:18;;;;;;;7.18;1.92;;;9.80;64.70;;;;;;4990752;28;20077;-40
2023/12/09 06:18:46;;;;;;;9.35;2.75;;;9.90;65.30;;;;;;4994297;28;20054;-43
2023/12/09 06:21:20;;;;;;;8.93;2.35;;;9.80;64.40;;;;;;4987688;28;20053;-40
2023/12/09 06:23:48;;;;;;;11.77;2.50;;;9.80;64.40;;;;;;4993484;28;20061;-40
2023/12/09 06:26:16;;;;;;;7.05;2.30;;;9.90;64.40;;;;;;4991420;28;20065;-41
2023/12/09 06:28:43;;;;;;;8.77;2.20;;;9.80;64.40;;;;;;4989414;28;20054;-39
2023/12/09 06:31:11;;;;;;;16.67;2.55;;;9.80;64.30;;;;;;4992082;28;20062;-38
2023/12/09 06:33:39;;;;;;;9.57;3.28;;;9.80;64.30;;;;;;4988829;28;20491;-38
2023/12/09 06:36:07;;;;;;;24.77;9.95;;;9.80;64.30;;;;;;4991982;28;20058;-40
2023/12/09 06:38:39;;;;;;;15.60;4.25;;;9.80;64.30;;;;;;4993453;28;20392;-43
2023/12/09 06:41:08;;;;;;;11.75;2.92;;;9.80;64.40;;;;;;4988699;28;20044;-38
2023/12/09 06:43:35;;;;;;;12.77;3.40;;;9.80;64.30;;;;;;4991382;28;20054;-41
2023/12/09 06:46:03;;;;;;;9.48;2.60;;;9.80;64.20;;;;;;4988059;28;20061;-40
2023/12/09 06:48:30;;;;;;;12.02;3.53;;;9.80;64.30;;;;;;4992521;28;20467;-40
2023/12/09 06:50:57;;;;;;;12.43;2.83;;;9.70;64.20;;;;;;4990129;28;20055;-41
2023/12/09 06:53:24;;;;;;;15.40;3.05;;;9.70;64.20;;;;;;4990318;28;20062;-40
2023/12/09 06:55:51;;;;;;;10.85;3.30;;;9.70;64.30;;;;;;4990490;28;20054;-41
2023/12/09 06:58:20;;;;;;;13.43;2.60;;;9.70;64.30;;;;;;4987331;28;20050;-42
2023/12/09 07:00:47;;;;;;;11.80;3.30;;;9.70;64.40;;;;;;4987517;28;20414;-41
2023/12/09 07:03:14;;;;;;;13.45;3.10;;;9.70;64.50;;;;;;4986319;28;20491;-41
2023/12/09 07:05:41;;;;;;;10.63;3.08;;;9.70;64.50;;;;;;4992062;28;20054;-46
2023/12/09 07:08:10;;;;;;;9.20;2.58;;;9.70;64.40;;;;;;4990302;28;20054;-47
2023/12/09 07:10:38;;;;;;;6.60;3.00;;;9.70;64.40;;;;;;4991224;28;20050;-46
2023/12/09 07:13:05;;;;;;;7.68;2.63;;;9.60;64.40;;;;;;4988882;28;20058;-47
2023/12/09 07:15:33;;;;;;;9.68;2.45;;;9.70;64.50;;;;;;4986975;28;20054;-46
2023/12/09 07:18:01;;;;;;;7.65;2.75;;;9.60;64.50;;;;;;4988163;28;20051;-47
2023/12/09 07:20:28;;;;;;;12.05;3.20;;;9.60;64.60;;;;;;4990040;28;20375;-47
2023/12/09 07:22:55;;;;;;;11.93;3.13;;;9.60;64.50;;;;;;4990358;28;20050;-46
2023/12/09 07:25:23;;;;;;;8.77;2.72;;;9.60;64.50;;;;;;4987940;28;20061;-46
2023/12/09 07:27:51;;;;;;;9.93;2.70;;;9.60;64.60;;;;;;4987756;28;20050;-47
2023/12/09 07:30:18;;;;;;;11.32;2.80;;;9.60;64.60;;;;;;4989332;28;20061;-47
2023/12/09 07:32:47;;;;;;;10.18;3.13;;;9.60;64.70;;;;;;4988319;28;20055;-46
2023/12/09 07:35:16;;;;;;;13.68;3.20;;;9.60;64.80;;;;;;4986332;28;20062;-46
2023/12/09 07:37:44;;;;;;;12.57;3.35;;;9.60;64.90;;;;;;4991895;28;20058;-45
2023/12/09 07:40:12;;;;;;;16.95;3.03;;;9.60;65.00;;;;;;4989408;28;20050;-43
2023/12/09 07:42:40;;;;;;;17.10;3.00;;;9.60;65.10;;;;;;4988972;28;20498;-47
2023/12/09 07:45:08;;;;;;;13.52;3.00;;;9.60;65.20;;;;;;4988129;28;20062;-46
2023/12/09 07:47:35;;;;;;;16.27;3.30;;;9.60;65.20;;;;;;4983976;28;20050;-45
2023/12/09 07:50:05;;;;;;;12.48;2.90;;;9.60;65.30;;;;;;4986401;28;20050;-47
2023/12/09 07:52:32;;;;;;;16.35;3.40;;;9.60;65.30;;;;;;4987286;28;20407;-47
2023/12/09 07:54:59;;;;;;;9.13;2.95;;;9.60;65.30;;;;;;4986325;28;20058;-46
2023/12/09 07:57:27;;;;;;;9.85;2.90;;;9.60;65.30;;;;;;4985979;28;20057;-46
2023/12/09 07:59:54;;;;;;;12.52;2.80;;;9.60;65.30;;;;;;4987501;28;20061;-46
2023/12/09 08:02:21;;;;;;;10.98;2.65;;;9.60;65.30;;;;;;4985531;28;20054;-46
2023/12/09 08:04:49;;;;;;;10.02;2.60;;;9.60;65.40;;;;;;4986967;28;20054;-47
2023/12/09 08:07:17;;;;;;;12.18;2.75;;;9.60;65.30;;;;;;4986006;28;20152;-46
2023/12/09 08:09:45;;;;;;;18.48;3.00;;;9.60;65.30;;;;;;4985997;28;20488;-47
2023/12/09 08:12:12;;;;;;;18.63;2.97;;;9.60;65.20;;;;;;4987996;28;20516;-46
2023/12/09 08:14:39;;;;;;;15.00;3.42;;;9.70;65.20;;;;;;4987702;28;20418;-47
2023/12/09 08:17:07;;;;;;;12.70;2.72;;;9.70;65.20;;;;;;4983683;28;20403;-46
2023/12/09 08:19:34;;;;;;;14.95;2.78;;;9.70;65.30;;;;;;4985673;28;20054;-46
2023/12/09 08:22:02;;;;;;;9.95;2.67;;;9.70;65.30;;;;;;4985616;28;20494;-46
2023/12/09 08:24:30;;;;;;;19.73;3.45;;;9.70;65.30;;;;;;4984620;28;20050;-46
2023/12/09 08:26:58;;;;;;;15.07;2.78;;;9.70;65.40;;;;;;4985952;28;20494;-46
2023/12/09 08:29:26;;;;;;;12.35;3.08;;;9.70;65.50;;;;;;4988474;28;20062;-47
2023/12/09 08:31:53;;;;;;;12.27;2.90;;;9.70;65.50;;;;;;4985557;28;21223;-47
2023/12/09 08:34:20;;;;;;;19.05;3.55;;;9.70;65.60;;;;;;4986461;28;20499;-46
2023/12/09 08:36:47;;;;;;;20.70;3.58;;;9.80;65.70;;;;;;4985960;28;20054;-47
2023/12/09 08:39:17;;;;;;;13.50;3.50;;;9.80;65.80;;;;;;4985473;28;20046;-47
2023/12/09 08:41:46;;;;;;;13.00;3.08;;;9.80;65.90;;;;;;4987310;28;20510;-46
2023/12/09 08:44:13;;;;;;;14.93;2.65;;;9.80;65.90;;;;;;4986146;28;20436;-47
2023/12/09 08:46:40;;;;;;;17.08;3.47;;;9.90;66.00;;;;;;4983667;28;20065;-46
2023/12/09 08:49:08;;;;;;;13.02;2.90;;;9.90;66.00;;;;;;4988002;28;20069;-46
2023/12/09 08:51:44;;;;;;;13.02;3.15;;;9.90;66.00;;;;;;4982441;28;20054;-47
2023/12/09 08:54:11;;;;;;;10.00;2.97;;;9.90;66.10;;;;;;4988067;28;20077;-46
2023/12/09 08:56:39;;;;;;;17.33;3.60;;;10.00;66.20;;;;;;4989112;28;20054;-46
2023/12/09 08:59:10;;;;;;;12.95;4.25;;;10.00;66.20;;;;;;4987279;28;20054;-47
2023/12/09 09:01:37;;;;;;;11.88;3.15;;;10.00;66.30;;;;;;4990662;28;20062;-46
2023/12/09 09:04:05;;;;;;;13.65;2.65;;;10.00;66.20;;;;;;4986697;28;20054;-46
2023/12/09 09:06:33;;;;;;;9.07;2.75;;;10.10;66.30;;;;;;4987302;28;20065;-47
2023/12/09 09:09:00;;;;;;;12.13;3.03;;;10.10;66.20;;;;;;4989251;28;20491;-47
2023/12/09 09:11:27;;;;;;;14.48;3.20;;;10.10;66.30;;;;;;4992521;28;20050;-46
2023/12/09 09:13:54;;;;;;;10.00;2.78;;;10.20;66.30;;;;;;4983857;28;20043;-47
2023/12/09 09:16:23;;;;;;;12.10;2.65;;;10.20;66.30;;;;;;4986267;28;20515;-46
2023/12/09 09:18:50;;;;;;;10.80;2.70;;;10.20;66.20;;;;;;4988311;28;20061;-47
2023/12/09 09:21:17;;;;;;;17.20;3.40;;;10.30;66.10;;;;;;4986821;28;20080;-47
2023/12/09 09:23:45;;;;;;;10.27;2.88;;;10.30;66.10;;;;;;4992641;28;20499;-47
2023/12/09 09:26:12;;;;;;;8.93;2.75;;;10.30;65.90;;;;;;4984492;28;20069;-46
2023/12/09 09:28:39;;;;;;;13.27;3.13;;;10.40;65.90;;;;;;4983360;28;20061;-41
2023/12/09 09:31:06;;;;;;;12.32;2.80;;;10.40;65.80;;;;;;4983304;28;20555;-41
2023/12/09 09:33:35;;;;;;;9.85;3.13;;;10.40;65.70;;;;;;4985243;28;20046;-41
2023/12/09 09:36:02;;;;;;;10.88;3.15;;;10.40;65.60;;;;;;4981359;28;20057;-43
2023/12/09 09:38:29;;;;;;;12.75;2.67;;;10.50;65.70;;;;;;4984089;28;20517;-41
2023/12/09 09:40:56;;;;;;;10.45;3.03;;;10.50;65.70;;;;;;4985869;28;20065;-41
2023/12/09 09:43:28;;;;;;;18.50;3.15;;;10.50;65.70;;;;;;4983408;28;22246;-39
2023/12/09 09:45:57;;;;;;;9.88;2.53;;;10.60;65.80;;;;;;4980713;28;20050;-42
2023/12/09 09:48:25;;;;;;;12.00;2.83;;;10.60;65.70;;;;;;4983324;28;20054;-40
2023/12/09 09:51:00;;;;;;;13.68;2.70;;;10.60;65.80;;;;;;4987434;28;20057;-39
2023/12/09 09:53:35;;;;;;;13.25;2.85;;;10.70;65.70;;;;;;4983464;28;20055;-41
2023/12/09 09:56:03;;;;;;;13.05;2.88;;;10.70;65.60;;;;;;4986116;28;20571;-42
2023/12/09 09:58:32;;;;;;;12.25;3.47;;;10.80;65.80;;;;;;4988566;28;20062;-39
2023/12/09 10:01:00;;;;;;;17.58;3.83;;;10.80;66.30;;;;;;4984836;28;20066;-40
2023/12/09 10:03:27;;;;;;;11.27;2.88;;;10.80;65.50;;;;;;4984252;28;20411;-41
2023/12/09 10:05:57;;;;;;;12.50;2.72;;;10.90;65.40;;;;;;4986923;28;20070;-38
2023/12/09 10:08:25;;;;;;;13.00;2.55;;;11.00;65.20;;;;;;4983702;28;20054;-43
2023/12/09 10:10:52;;;;;;;10.38;2.40;;;11.00;65.10;;;;;;4985783;28;20058;-41
2023/12/09 10:13:19;;;;;;;10.45;2.30;;;11.00;65.00;;;;;;4990635;28;20415;-41
2023/12/09 10:15:46;;;;;;;9.40;2.70;;;11.10;65.10;;;;;;4984267;28;20057;-42
2023/12/09 10:18:14;;;;;;;13.65;2.45;;;11.10;65.00;;;;;;4983759;28;20138;-40
2023/12/09 10:20:43;;;;;;;10.95;2.85;;;11.10;64.70;;;;;;4985777;28;20050;-41
2023/12/09 10:23:12;;;;;;;12.50;2.78;;;11.20;64.60;;;;;;4987386;28;20049;-40
2023/12/09 10:25:40;;;;;;;13.32;2.95;;;11.20;64.50;;;;;;4986046;28;20050;-39
2023/12/09 10:28:08;;;;;;;11.82;2.67;;;11.30;64.40;;;;;;4982761;28;20525;-39
2023/12/09 10:30:36;;;;;;;17.88;3.17;;;11.30;64.10;;;;;;4990427;28;20065;-40
2023/12/09 10:33:03;;;;;;;13.07;2.78;;;11.40;64.10;;;;;;4986657;28;20395;-42
2023/12/09 10:35:31;;;;;;;10.63;2.70;;;11.40;64.10;;;;;;4984637;28;20062;-43
2023/12/09 10:38:01;;;;;;;14.98;3.20;;;11.40;64.00;;;;;;4985615;28;20058;-40
2023/12/09 10:40:30;;;;;;;13.82;2.95;;;11.50;63.90;;;;;;4986614;28;20062;-43
2023/12/09 10:42:58;;;;;;;18.48;2.88;;;11.50;63.70;;;;;;4988102;28;20053;-40
2023/12/09 10:45:25;;;;;;;14.32;2.90;;;11.60;63.50;;;;;;4986326;28;20495;-43
2023/12/09 10:47:52;;;;;;;12.57;3.42;;;11.60;63.40;;;;;;4986696;28;20057;-43
2023/12/09 10:50:19;;;;;;;14.85;2.85;;;11.60;63.40;;;;;;4985155;28;20050;-42
2023/12/09 10:52:47;;;;;;;13.35;2.88;;;11.70;63.30;;;;;;4983630;28;20058;-40
2023/12/09 10:55:15;;;;;;;9.07;2.80;;;11.70;63.00;;;;;;4988233;28;20050;-40
2023/12/09 10:57:44;;;;;;;18.00;2.63;;;11.80;63.00;;;;;;4983986;28;20042;-40
2023/12/09 11:00:15;;;;;;;16.05;3.22;;;11.90;62.80;;;;;;4984258;28;20050;-42
2023/12/09 11:02:43;;;;;;;12.05;3.00;;;11.90;62.70;;;;;;4987599;28;20522;-38
2023/12/09 11:05:11;;;;;;;12.48;2.60;;;12.00;62.60;;;;;;4991257;28;20474;-37
2023/12/09 11:07:39;;;;;;;16.20;3.75;;;12.00;62.40;;;;;;4990854;28;20558;-40
2023/12/09 11:10:08;;;;;;;15.82;2.60;;;12.00;62.20;;;;;;4989755;28;20046;-39
2023/12/09 11:12:37;;;;;;;15.23;2.72;;;12.10;61.90;;;;;;4984285;28;20427;-42
2023/12/09 11:15:18;;;;;;;16.98;2.60;;;12.10;61.40;;;;;;4989141;28;20054;-41
2023/12/09 11:17:47;;;;;;;15.32;2.78;;;12.10;61.10;;;;;;4984854;28;20061;-40
2023/12/09 11:20:16;;;;;;;16.63;2.90;;;12.20;61.30;;;;;;4985323;28;20057;-39
2023/12/09 11:22:45;;;;;;;16.25;3.33;;;12.20;61.00;;;;;;4988449;28;20483;-43
2023/12/09 11:25:21;;;;;;;17.00;3.50;;;12.20;60.70;;;;;;4982331;28;20057;-38
2023/12/09 11:27:50;;;;;;;18.63;2.90;;;12.30;60.50;;;;;;4982650;28;20061;-41
2023/12/09 11:30:33;;;;;;;16.48;2.92;;;12.30;60.50;;;;;;4985766;28;20050;-39
2023/12/09 11:33:01;;;;;;;15.63;2.83;;;12.30;59.90;;;;;;4985186;28;20982;-41
2023/12/09 11:35:29;;;;;;;19.63;2.90;;;12.30;60.00;;;;;;4984688;28;20514;-37
2023/12/09 11:37:59;;;;;;;12.25;3.10;;;12.30;59.60;;;;;;4986988;28;20694;-41
2023/12/09 11:40:28;;;;;;;16.70;3.42;;;12.30;59.60;;;;;;4988502;28;20061;-39
2023/12/09 11:42:56;;;;;;;17.90;3.40;;;12.30;59.60;;;;;;4981121;28;20059;-41
2023/12/09 11:45:24;;;;;;;14.82;3.25;;;12.30;59.50;;;;;;4988454;28;20065;-38
2023/12/09 11:47:54;;;;;;;14.85;2.95;;;12.20;59.40;;;;;;4993942;28;20466;-40
2023/12/09 11:50:21;;;;;;;13.90;3.15;;;12.30;59.50;;;;;;4987866;28;20542;-38
2023/12/09 11:52:49;;;;;;;14.80;3.70;;;12.30;59.40;;;;;;4988035;28;20046;-40
2023/12/09 11:55:18;;;;;;;13.85;4.03;;;12.30;59.40;;;;;;4987695;28;20046;-40
2023/12/09 11:57:46;;;;;;;10.65;3.30;;;12.30;59.40;;;;;;4989306;28;20065;-41
2023/12/09 12:00:15;;;;;;;10.68;3.55;;;12.30;59.60;;;;;;4987226;28;20595;-36
2023/12/09 12:02:43;;;;;;;14.98;3.92;;;12.30;59.70;;;;;;4984691;28;20073;-41
2023/12/09 12:05:13;;;;;;;14.90;3.80;;;12.30;59.70;;;;;;4986500;28;20058;-37
2023/12/09 12:07:40;;;;;;;11.55;3.80;;;12.30;59.80;;;;;;4988225;28;20568;-40
2023/12/09 12:10:09;;;;;;;16.52;3.55;;;12.30;59.90;;;;;;4987724;28;20057;-39
2023/12/09 12:12:37;;;;;;;13.35;3.30;;;12.30;59.90;;;;;;4987772;28;20050;-37
2023/12/09 12:15:05;;;;;;;11.60;3.17;;;12.30;60.00;;;;;;4982999;28;20042;-40
2023/12/09 12:17:40;;;;;;;13.98;3.47;;;12.30;59.90;;;;;;4985816;28;20077;-41
2023/12/09 12:20:10;;;;;;;15.55;2.80;;;12.30;59.90;;;;;;4986169;28;20423;-38
2023/12/09 12:22:40;;;;;;;13.55;2.80;;;12.40;60.80;;;;;;4987510;28;20050;-38
2023/12/09 12:25:09;;;;;;;10.52;3.05;;;12.40;59.80;;;;;;4985295;28;20065;-37
2023/12/09 12:27:39;;;;;;;15.55;3.55;;;12.40;59.80;;;;;;4986609;28;20061;-38
2023/12/09 12:30:09;;;;;;;15.82;3.45;;;12.40;59.70;;;;;;4988254;28;20058;-39
2023/12/09 12:32:37;;;;;;;16.45;3.53;;;12.40;59.70;;;;;;4986259;28;20058;-40
2023/12/09 12:35:06;;;;;;;11.55;3.03;;;12.40;59.60;;;;;;4986303;28;20053;-40
2023/12/09 12:37:33;;;;;;;12.50;3.03;;;12.40;59.60;;;;;;4983534;28;20534;-41
2023/12/09 12:40:02;;;;;;;14.35;2.80;;;12.40;59.50;;;;;;4986802;28;20058;-38
2023/12/09 12:42:30;;;;;;;7.50;2.55;;;12.40;59.40;;;;;;4985149;28;20062;-40
2023/12/09 12:44:58;;;;;;;10.13;2.22;;;12.30;59.30;;;;;;4985871;28;20375;-40
2023/12/09 12:47:25;;;;;;;13.95;2.55;;;12.30;59.20;;;;;;4984664;28;20057;-41
2023/12/09 12:49:52;;;;;;;14.02;3.08;;;12.30;59.10;;;;;;4985859;28;20061;-40